sensor_id;sensor_type;location;lat;lon;timestamp;P1;durP1;ratioP1;P2;durP2;ratioP2
17943;SDS011;9097;47.028;15.444;2022-11-06T00:01:53;2.73;;;1.73;;
17943;SDS011;9097;47.028;15.444;2022-11-06T00:04:56;11.03;;;3.10;;
17943;SDS011;9097;47.028;15.444;2022-11-06T00:08:28;2.20;;;1.97;;
17943;SDS011;9097;47.028;15.444;2022-11-06T00:11:31;4.63;;;2.13;;
17943;SDS011;9097;47.028;15.444;2022-11-06T00:14:34;8.67;;;2.23;;
17943;SDS011;9097;47.028;15.444;2022-11-06T00:17:37;2.40;;;1.67;;
17943;SDS011;9097;47.028;15.444;2022-11-06T00:20:41;3.67;;;1.67;;
17943;SDS011;9097;47.028;15.444;2022-11-06T00:23:46;3.57;;;1.20;;
17943;SDS011;9097;47.028;15.444;2022-11-06T00:26:48;5.50;;;2.87;;
17943;SDS011;9097;47.028;15.444;2022-11-06T00:29:51;6.00;;;2.27;;
17943;SDS011;9097;47.028;15.444;2022-11-06T00:32:56;5.70;;;1.70;;
17943;SDS011;9097;47.028;15.444;2022-11-06T00:36:01;6.07;;;2.63;;
17943;SDS011;9097;47.028;15.444;2022-11-06T00:39:06;11.50;;;2.93;;
17943;SDS011;9097;47.028;15.444;2022-11-06T00:42:09;9.60;;;2.67;;
17943;SDS011;9097;47.028;15.444;2022-11-06T00:45:11;3.87;;;2.23;;
17943;SDS011;9097;47.028;15.444;2022-11-06T00:48:14;3.60;;;1.93;;
17943;SDS011;9097;47.028;15.444;2022-11-06T00:51:19;5.07;;;1.97;;
17943;SDS011;9097;47.028;15.444;2022-11-06T00:54:24;4.03;;;1.97;;
17943;SDS011;9097;47.028;15.444;2022-11-06T00:57:27;3.27;;;1.97;;
17943;SDS011;9097;47.028;15.444;2022-11-06T01:00:30;5.43;;;2.20;;
17943;SDS011;9097;47.028;15.444;2022-11-06T01:03:39;3.87;;;2.67;;
17943;SDS011;9097;47.028;15.444;2022-11-06T01:06:43;6.10;;;2.67;;
17943;SDS011;9097;47.028;15.444;2022-11-06T01:09:47;3.07;;;2.30;;
17943;SDS011;9097;47.028;15.444;2022-11-06T01:12:50;2.50;;;2.00;;
17943;SDS011;9097;47.028;15.444;2022-11-06T01:15:53;5.00;;;2.50;;
17943;SDS011;9097;47.028;15.444;2022-11-06T01:18:57;2.37;;;2.03;;
17943;SDS011;9097;47.028;15.444;2022-11-06T01:22:01;2.30;;;1.77;;
17943;SDS011;9097;47.028;15.444;2022-11-06T01:25:06;8.17;;;2.60;;
17943;SDS011;9097;47.028;15.444;2022-11-06T01:28:10;8.20;;;2.50;;
17943;SDS011;9097;47.028;15.444;2022-11-06T01:31:13;3.83;;;1.83;;
17943;SDS011;9097;47.028;15.444;2022-11-06T01:34:19;3.83;;;1.97;;
17943;SDS011;9097;47.028;15.444;2022-11-06T01:37:22;4.13;;;2.60;;
17943;SDS011;9097;47.028;15.444;2022-11-06T01:40:26;4.60;;;1.80;;
17943;SDS011;9097;47.028;15.444;2022-11-06T01:43:43;3.43;;;1.77;;
17943;SDS011;9097;47.028;15.444;2022-11-06T01:46:45;3.60;;;2.00;;
17943;SDS011;9097;47.028;15.444;2022-11-06T01:49:48;4.63;;;2.13;;
17943;SDS011;9097;47.028;15.444;2022-11-06T01:52:52;7.07;;;2.20;;
17943;SDS011;9097;47.028;15.444;2022-11-06T01:55:58;3.57;;;2.40;;
17943;SDS011;9097;47.028;15.444;2022-11-06T01:59:01;3.13;;;1.63;;
17943;SDS011;9097;47.028;15.444;2022-11-06T02:02:04;3.07;;;1.77;;
17943;SDS011;9097;47.028;15.444;2022-11-06T02:05:07;4.20;;;2.40;;
17943;SDS011;9097;47.028;15.444;2022-11-06T02:08:12;4.90;;;1.90;;
17943;SDS011;9097;47.028;15.444;2022-11-06T02:11:16;5.37;;;2.00;;
17943;SDS011;9097;47.028;15.444;2022-11-06T02:14:21;4.30;;;2.30;;
17943;SDS011;9097;47.028;15.444;2022-11-06T02:17:29;3.40;;;1.73;;
17943;SDS011;9097;47.028;15.444;2022-11-06T02:20:36;4.37;;;2.53;;
17943;SDS011;9097;47.028;15.444;2022-11-06T02:23:49;2.73;;;1.37;;
17943;SDS011;9097;47.028;15.444;2022-11-06T02:27:00;3.37;;;2.03;;
17943;SDS011;9097;47.028;15.444;2022-11-06T02:30:05;2.70;;;1.53;;
17943;SDS011;9097;47.028;15.444;2022-11-06T02:33:09;2.73;;;1.27;;
17943;SDS011;9097;47.028;15.444;2022-11-06T02:36:15;1.83;;;1.70;;
17943;SDS011;9097;47.028;15.444;2022-11-06T02:39:23;2.50;;;1.43;;
17943;SDS011;9097;47.028;15.444;2022-11-06T02:42:30;4.57;;;1.83;;
17943;SDS011;9097;47.028;15.444;2022-11-06T02:45:39;4.03;;;2.03;;
17943;SDS011;9097;47.028;15.444;2022-11-06T02:48:46;6.43;;;1.53;;
17943;SDS011;9097;47.028;15.444;2022-11-06T02:51:52;2.57;;;1.60;;
17943;SDS011;9097;47.028;15.444;2022-11-06T02:54:59;3.90;;;1.50;;
17943;SDS011;9097;47.028;15.444;2022-11-06T02:58:09;4.23;;;2.43;;
17943;SDS011;9097;47.028;15.444;2022-11-06T03:01:16;3.43;;;2.13;;
17943;SDS011;9097;47.028;15.444;2022-11-06T03:04:23;3.03;;;1.20;;
17943;SDS011;9097;47.028;15.444;2022-11-06T03:07:35;4.27;;;2.00;;
17943;SDS011;9097;47.028;15.444;2022-11-06T03:10:41;5.97;;;2.70;;
17943;SDS011;9097;47.028;15.444;2022-11-06T03:13:50;4.13;;;2.40;;
17943;SDS011;9097;47.028;15.444;2022-11-06T03:16:57;4.97;;;2.70;;
17943;SDS011;9097;47.028;15.444;2022-11-06T03:20:02;4.80;;;2.27;;
17943;SDS011;9097;47.028;15.444;2022-11-06T03:23:12;5.40;;;2.30;;
17943;SDS011;9097;47.028;15.444;2022-11-06T03:26:21;5.73;;;2.93;;
17943;SDS011;9097;47.028;15.444;2022-11-06T03:29:33;4.97;;;2.33;;
17943;SDS011;9097;47.028;15.444;2022-11-06T03:32:41;6.93;;;1.90;;
17943;SDS011;9097;47.028;15.444;2022-11-06T03:35:50;3.83;;;1.90;;
17943;SDS011;9097;47.028;15.444;2022-11-06T03:38:58;8.60;;;2.50;;
17943;SDS011;9097;47.028;15.444;2022-11-06T03:42:03;2.97;;;1.80;;
17943;SDS011;9097;47.028;15.444;2022-11-06T03:45:10;5.43;;;1.50;;
17943;SDS011;9097;47.028;15.444;2022-11-06T03:48:17;1.87;;;1.37;;
17943;SDS011;9097;47.028;15.444;2022-11-06T03:51:23;2.27;;;1.40;;
17943;SDS011;9097;47.028;15.444;2022-11-06T03:54:31;2.03;;;1.30;;
17943;SDS011;9097;47.028;15.444;2022-11-06T03:57:38;2.37;;;0.93;;
17943;SDS011;9097;47.028;15.444;2022-11-06T04:00:46;2.50;;;1.70;;
17943;SDS011;9097;47.028;15.444;2022-11-06T04:03:53;1.37;;;1.13;;
17943;SDS011;9097;47.028;15.444;2022-11-06T04:06:59;2.33;;;1.60;;
17943;SDS011;9097;47.028;15.444;2022-11-06T04:10:05;1.20;;;1.10;;
17943;SDS011;9097;47.028;15.444;2022-11-06T04:13:28;3.37;;;1.53;;
17943;SDS011;9097;47.028;15.444;2022-11-06T04:16:55;2.33;;;1.80;;
17943;SDS011;9097;47.028;15.444;2022-11-06T04:20:04;2.53;;;2.33;;
17943;SDS011;9097;47.028;15.444;2022-11-06T04:23:11;3.60;;;1.90;;
17943;SDS011;9097;47.028;15.444;2022-11-06T04:26:21;2.60;;;1.30;;
17943;SDS011;9097;47.028;15.444;2022-11-06T04:29:43;1.67;;;1.57;;
17943;SDS011;9097;47.028;15.444;2022-11-06T04:33:00;1.73;;;0.90;;
17943;SDS011;9097;47.028;15.444;2022-11-06T04:36:10;5.57;;;2.47;;
17943;SDS011;9097;47.028;15.444;2022-11-06T04:39:21;8.20;;;2.60;;
17943;SDS011;9097;47.028;15.444;2022-11-06T04:42:31;3.70;;;1.33;;
17943;SDS011;9097;47.028;15.444;2022-11-06T04:45:40;1.47;;;1.20;;
17943;SDS011;9097;47.028;15.444;2022-11-06T04:48:47;4.03;;;1.63;;
17943;SDS011;9097;47.028;15.444;2022-11-06T04:51:51;1.57;;;1.27;;
17943;SDS011;9097;47.028;15.444;2022-11-06T04:54:54;1.87;;;1.30;;
17943;SDS011;9097;47.028;15.444;2022-11-06T04:57:59;1.63;;;1.53;;
17943;SDS011;9097;47.028;15.444;2022-11-06T05:01:01;2.20;;;1.10;;
17943;SDS011;9097;47.028;15.444;2022-11-06T05:04:05;1.80;;;1.03;;
17943;SDS011;9097;47.028;15.444;2022-11-06T05:07:08;3.70;;;1.77;;
17943;SDS011;9097;47.028;15.444;2022-11-06T05:10:12;3.77;;;1.47;;
17943;SDS011;9097;47.028;15.444;2022-11-06T05:13:14;2.23;;;1.60;;
17943;SDS011;9097;47.028;15.444;2022-11-06T05:16:17;2.70;;;1.30;;
17943;SDS011;9097;47.028;15.444;2022-11-06T05:19:21;3.03;;;1.97;;
17943;SDS011;9097;47.028;15.444;2022-11-06T05:22:24;1.53;;;1.00;;
17943;SDS011;9097;47.028;15.444;2022-11-06T05:25:44;2.20;;;1.87;;
17943;SDS011;9097;47.028;15.444;2022-11-06T05:28:47;1.57;;;1.47;;
17943;SDS011;9097;47.028;15.444;2022-11-06T05:31:50;9.40;;;1.37;;
17943;SDS011;9097;47.028;15.444;2022-11-06T05:34:54;1.43;;;1.30;;
17943;SDS011;9097;47.028;15.444;2022-11-06T05:38:01;2.73;;;2.00;;
17943;SDS011;9097;47.028;15.444;2022-11-06T05:41:04;6.47;;;1.97;;
17943;SDS011;9097;47.028;15.444;2022-11-06T05:44:09;1.73;;;1.53;;
17943;SDS011;9097;47.028;15.444;2022-11-06T05:47:13;1.67;;;1.57;;
17943;SDS011;9097;47.028;15.444;2022-11-06T05:50:25;2.57;;;1.83;;
17943;SDS011;9097;47.028;15.444;2022-11-06T05:53:42;1.83;;;1.10;;
17943;SDS011;9097;47.028;15.444;2022-11-06T05:56:45;0.80;;;0.80;;
17943;SDS011;9097;47.028;15.444;2022-11-06T05:59:48;3.77;;;1.47;;
17943;SDS011;9097;47.028;15.444;2022-11-06T06:02:53;3.23;;;1.83;;
17943;SDS011;9097;47.028;15.444;2022-11-06T06:05:57;2.80;;;2.20;;
17943;SDS011;9097;47.028;15.444;2022-11-06T06:08:59;2.63;;;1.37;;
17943;SDS011;9097;47.028;15.444;2022-11-06T06:12:02;7.60;;;2.10;;
17943;SDS011;9097;47.028;15.444;2022-11-06T06:15:05;1.17;;;1.07;;
17943;SDS011;9097;47.028;15.444;2022-11-06T06:18:09;2.97;;;1.80;;
17943;SDS011;9097;47.028;15.444;2022-11-06T06:21:14;4.83;;;1.93;;
17943;SDS011;9097;47.028;15.444;2022-11-06T06:24:17;1.63;;;1.10;;
17943;SDS011;9097;47.028;15.444;2022-11-06T06:27:19;3.27;;;1.30;;
17943;SDS011;9097;47.028;15.444;2022-11-06T06:30:23;14.23;;;2.27;;
17943;SDS011;9097;47.028;15.444;2022-11-06T06:33:26;0.67;;;0.67;;
17943;SDS011;9097;47.028;15.444;2022-11-06T06:36:31;3.33;;;2.27;;
17943;SDS011;9097;47.028;15.444;2022-11-06T06:39:34;2.53;;;1.27;;
17943;SDS011;9097;47.028;15.444;2022-11-06T06:42:36;3.87;;;1.63;;
17943;SDS011;9097;47.028;15.444;2022-11-06T06:45:39;2.27;;;1.80;;
17943;SDS011;9097;47.028;15.444;2022-11-06T06:48:41;3.27;;;2.00;;
17943;SDS011;9097;47.028;15.444;2022-11-06T06:51:46;6.70;;;2.47;;
17943;SDS011;9097;47.028;15.444;2022-11-06T06:54:48;3.03;;;2.13;;
17943;SDS011;9097;47.028;15.444;2022-11-06T06:57:57;1.97;;;1.73;;
17943;SDS011;9097;47.028;15.444;2022-11-06T07:01:02;2.27;;;1.60;;
17943;SDS011;9097;47.028;15.444;2022-11-06T07:04:09;2.27;;;1.20;;
17943;SDS011;9097;47.028;15.444;2022-11-06T07:07:13;2.10;;;1.47;;
17943;SDS011;9097;47.028;15.444;2022-11-06T07:10:16;2.53;;;1.23;;
17943;SDS011;9097;47.028;15.444;2022-11-06T07:13:18;2.93;;;1.50;;
17943;SDS011;9097;47.028;15.444;2022-11-06T07:16:21;3.40;;;1.90;;
17943;SDS011;9097;47.028;15.444;2022-11-06T07:19:24;3.57;;;1.73;;
17943;SDS011;9097;47.028;15.444;2022-11-06T07:22:29;1.33;;;1.13;;
17943;SDS011;9097;47.028;15.444;2022-11-06T07:25:32;3.67;;;1.90;;
17943;SDS011;9097;47.028;15.444;2022-11-06T07:28:35;2.60;;;1.53;;
17943;SDS011;9097;47.028;15.444;2022-11-06T07:31:38;2.37;;;1.57;;
17943;SDS011;9097;47.028;15.444;2022-11-06T07:34:44;5.03;;;1.73;;
17943;SDS011;9097;47.028;15.444;2022-11-06T07:37:49;2.10;;;1.23;;
17943;SDS011;9097;47.028;15.444;2022-11-06T07:40:51;3.30;;;1.77;;
17943;SDS011;9097;47.028;15.444;2022-11-06T07:43:54;1.60;;;1.33;;
17943;SDS011;9097;47.028;15.444;2022-11-06T07:46:57;3.60;;;1.40;;
17943;SDS011;9097;47.028;15.444;2022-11-06T07:49:59;2.13;;;1.53;;
17943;SDS011;9097;47.028;15.444;2022-11-06T07:53:03;3.27;;;1.87;;
17943;SDS011;9097;47.028;15.444;2022-11-06T07:56:06;4.67;;;2.03;;
17943;SDS011;9097;47.028;15.444;2022-11-06T07:59:09;3.27;;;1.67;;
17943;SDS011;9097;47.028;15.444;2022-11-06T08:02:13;1.83;;;1.40;;
17943;SDS011;9097;47.028;15.444;2022-11-06T08:05:16;5.43;;;1.63;;
17943;SDS011;9097;47.028;15.444;2022-11-06T08:08:20;2.67;;;1.30;;
17943;SDS011;9097;47.028;15.444;2022-11-06T08:11:25;2.37;;;1.33;;
17943;SDS011;9097;47.028;15.444;2022-11-06T08:14:42;2.43;;;1.40;;
17943;SDS011;9097;47.028;15.444;2022-11-06T08:17:45;2.57;;;1.67;;
17943;SDS011;9097;47.028;15.444;2022-11-06T08:20:51;2.33;;;1.73;;
17943;SDS011;9097;47.028;15.444;2022-11-06T08:23:55;2.70;;;1.43;;
17943;SDS011;9097;47.028;15.444;2022-11-06T08:26:58;2.20;;;1.60;;
17943;SDS011;9097;47.028;15.444;2022-11-06T08:30:02;2.20;;;1.50;;
17943;SDS011;9097;47.028;15.444;2022-11-06T08:33:05;8.23;;;2.30;;
17943;SDS011;9097;47.028;15.444;2022-11-06T08:36:09;6.87;;;2.13;;
17943;SDS011;9097;47.028;15.444;2022-11-06T08:39:19;3.13;;;1.97;;
17943;SDS011;9097;47.028;15.444;2022-11-06T08:42:22;2.80;;;1.90;;
17943;SDS011;9097;47.028;15.444;2022-11-06T08:45:24;3.75;;;1.77;;
17943;SDS011;9097;47.028;15.444;2022-11-06T08:48:28;3.55;;;2.28;;
17943;SDS011;9097;47.028;15.444;2022-11-06T08:51:34;5.05;;;2.53;;
17943;SDS011;9097;47.028;15.444;2022-11-06T08:54:39;2.95;;;1.90;;
17943;SDS011;9097;47.028;15.444;2022-11-06T08:57:42;2.85;;;2.30;;
17943;SDS011;9097;47.028;15.444;2022-11-06T09:00:45;3.08;;;1.48;;
17943;SDS011;9097;47.028;15.444;2022-11-06T09:03:57;2.65;;;2.00;;
17943;SDS011;9097;47.028;15.444;2022-11-06T09:07:00;3.28;;;2.25;;
17943;SDS011;9097;47.028;15.444;2022-11-06T09:10:05;2.47;;;1.90;;
17943;SDS011;9097;47.028;15.444;2022-11-06T09:13:09;2.42;;;1.55;;
17943;SDS011;9097;47.028;15.444;2022-11-06T09:16:19;1.75;;;1.63;;
17943;SDS011;9097;47.028;15.444;2022-11-06T09:19:22;2.33;;;1.50;;
17943;SDS011;9097;47.028;15.444;2022-11-06T09:22:25;2.33;;;1.95;;
17943;SDS011;9097;47.028;15.444;2022-11-06T09:25:30;3.67;;;2.25;;
17943;SDS011;9097;47.028;15.444;2022-11-06T09:28:33;2.85;;;2.08;;
17943;SDS011;9097;47.028;15.444;2022-11-06T09:31:36;2.85;;;1.90;;
17943;SDS011;9097;47.028;15.444;2022-11-06T09:34:40;2.80;;;1.63;;
17943;SDS011;9097;47.028;15.444;2022-11-06T09:37:44;2.92;;;1.70;;
17943;SDS011;9097;47.028;15.444;2022-11-06T09:40:50;1.95;;;1.55;;
17943;SDS011;9097;47.028;15.444;2022-11-06T09:43:58;1.33;;;1.20;;
17943;SDS011;9097;47.028;15.444;2022-11-06T09:47:04;2.28;;;1.30;;
17943;SDS011;9097;47.028;15.444;2022-11-06T09:50:11;2.10;;;1.13;;
17943;SDS011;9097;47.028;15.444;2022-11-06T09:53:18;1.20;;;1.10;;
17943;SDS011;9097;47.028;15.444;2022-11-06T09:56:23;1.27;;;1.17;;
17943;SDS011;9097;47.028;15.444;2022-11-06T09:59:32;1.92;;;1.60;;
17943;SDS011;9097;47.028;15.444;2022-11-06T10:02:46;1.52;;;1.30;;
17943;SDS011;9097;47.028;15.444;2022-11-06T10:05:52;2.55;;;1.52;;
17943;SDS011;9097;47.028;15.444;2022-11-06T10:09:00;3.38;;;1.23;;
17943;SDS011;9097;47.028;15.444;2022-11-06T10:12:09;1.70;;;0.93;;
17943;SDS011;9097;47.028;15.444;2022-11-06T10:15:17;2.88;;;1.50;;
17943;SDS011;9097;47.028;15.444;2022-11-06T10:18:24;2.72;;;1.33;;
17943;SDS011;9097;47.028;15.444;2022-11-06T10:21:32;1.17;;;0.90;;
17943;SDS011;9097;47.028;15.444;2022-11-06T10:24:45;3.65;;;1.17;;
17943;SDS011;9097;47.028;15.444;2022-11-06T10:27:55;2.10;;;0.90;;
17943;SDS011;9097;47.028;15.444;2022-11-06T10:31:06;1.73;;;1.00;;
17943;SDS011;9097;47.028;15.444;2022-11-06T10:34:12;2.00;;;1.40;;
17943;SDS011;9097;47.028;15.444;2022-11-06T10:37:18;0.55;;;0.45;;
17943;SDS011;9097;47.028;15.444;2022-11-06T10:40:24;0.80;;;0.77;;
17943;SDS011;9097;47.028;15.444;2022-11-06T10:43:32;1.63;;;1.05;;
17943;SDS011;9097;47.028;15.444;2022-11-06T10:46:37;1.13;;;1.02;;
17943;SDS011;9097;47.028;15.444;2022-11-06T10:49:43;2.20;;;1.27;;
17943;SDS011;9097;47.028;15.444;2022-11-06T10:52:50;1.63;;;0.90;;
17943;SDS011;9097;47.028;15.444;2022-11-06T10:59:14;1.17;;;0.77;;
17943;SDS011;9097;47.028;15.444;2022-11-06T11:02:20;1.17;;;1.00;;
17943;SDS011;9097;47.028;15.444;2022-11-06T11:05:24;1.42;;;0.77;;
17943;SDS011;9097;47.028;15.444;2022-11-06T11:08:31;1.55;;;0.70;;
17943;SDS011;9097;47.028;15.444;2022-11-06T11:11:35;0.73;;;0.47;;
17943;SDS011;9097;47.028;15.444;2022-11-06T11:14:40;0.63;;;0.63;;
17943;SDS011;9097;47.028;15.444;2022-11-06T11:21:12;1.08;;;0.60;;
17943;SDS011;9097;47.028;15.444;2022-11-06T11:24:15;0.75;;;0.68;;
17943;SDS011;9097;47.028;15.444;2022-11-06T11:27:18;1.98;;;1.05;;
17943;SDS011;9097;47.028;15.444;2022-11-06T11:30:24;0.85;;;0.68;;
17943;SDS011;9097;47.028;15.444;2022-11-06T11:33:29;1.08;;;0.70;;
17943;SDS011;9097;47.028;15.444;2022-11-06T11:36:45;1.05;;;0.57;;
17943;SDS011;9097;47.028;15.444;2022-11-06T11:39:49;2.25;;;0.65;;
17943;SDS011;9097;47.028;15.444;2022-11-06T11:42:53;0.85;;;0.40;;
17943;SDS011;9097;47.028;15.444;2022-11-06T11:49:28;2.08;;;1.10;;
17943;SDS011;9097;47.028;15.444;2022-11-06T11:52:32;0.75;;;0.52;;
17943;SDS011;9097;47.028;15.444;2022-11-06T11:55:35;0.70;;;0.70;;
17943;SDS011;9097;47.028;15.444;2022-11-06T11:58:39;1.25;;;0.95;;
17943;SDS011;9097;47.028;15.444;2022-11-06T12:01:42;0.75;;;0.55;;
17943;SDS011;9097;47.028;15.444;2022-11-06T12:04:46;1.08;;;0.60;;
17943;SDS011;9097;47.028;15.444;2022-11-06T12:07:53;0.52;;;0.47;;
17943;SDS011;9097;47.028;15.444;2022-11-06T12:11:00;0.30;;;0.30;;
17943;SDS011;9097;47.028;15.444;2022-11-06T12:17:25;1.17;;;0.57;;
17943;SDS011;9097;47.028;15.444;2022-11-06T12:20:34;0.40;;;0.40;;
17943;SDS011;9097;47.028;15.444;2022-11-06T12:23:39;0.98;;;0.55;;
17943;SDS011;9097;47.028;15.444;2022-11-06T12:26:47;0.90;;;0.50;;
17943;SDS011;9097;47.028;15.444;2022-11-06T12:29:55;0.88;;;0.80;;
17943;SDS011;9097;47.028;15.444;2022-11-06T12:33:05;1.40;;;0.95;;
17943;SDS011;9097;47.028;15.444;2022-11-06T12:36:13;0.60;;;0.60;;
17943;SDS011;9097;47.028;15.444;2022-11-06T12:39:20;0.80;;;0.68;;
17943;SDS011;9097;47.028;15.444;2022-11-06T12:42:26;1.45;;;0.68;;
17943;SDS011;9097;47.028;15.444;2022-11-06T12:45:34;0.90;;;0.63;;
17943;SDS011;9097;47.028;15.444;2022-11-06T12:48:41;1.30;;;0.80;;
17943;SDS011;9097;47.028;15.444;2022-11-06T12:51:50;0.70;;;0.70;;
17943;SDS011;9097;47.028;15.444;2022-11-06T12:55:02;1.10;;;0.52;;
17943;SDS011;9097;47.028;15.444;2022-11-06T13:01:36;0.50;;;0.50;;
17943;SDS011;9097;47.028;15.444;2022-11-06T13:04:48;0.55;;;0.43;;
17943;SDS011;9097;47.028;15.444;2022-11-06T13:07:58;2.05;;;0.95;;
17943;SDS011;9097;47.028;15.444;2022-11-06T13:11:07;0.98;;;0.82;;
17943;SDS011;9097;47.028;15.444;2022-11-06T13:14:13;0.47;;;0.47;;
17943;SDS011;9097;47.028;15.444;2022-11-06T13:17:20;1.00;;;0.60;;
17943;SDS011;9097;47.028;15.444;2022-11-06T13:20:26;0.60;;;0.40;;
17943;SDS011;9097;47.028;15.444;2022-11-06T13:23:34;0.95;;;0.60;;
17943;SDS011;9097;47.028;15.444;2022-11-06T13:26:41;0.40;;;0.40;;
17943;SDS011;9097;47.028;15.444;2022-11-06T13:29:45;0.40;;;0.33;;
17943;SDS011;9097;47.028;15.444;2022-11-06T13:32:51;1.07;;;0.47;;
17943;SDS011;9097;47.028;15.444;2022-11-06T13:35:55;0.27;;;0.20;;
17943;SDS011;9097;47.028;15.444;2022-11-06T13:39:14;0.73;;;0.50;;
17943;SDS011;9097;47.028;15.444;2022-11-06T13:42:20;0.40;;;0.30;;
17943;SDS011;9097;47.028;15.444;2022-11-06T13:45:27;0.80;;;0.50;;
17943;SDS011;9097;47.028;15.444;2022-11-06T13:48:35;1.20;;;0.30;;
17943;SDS011;9097;47.028;15.444;2022-11-06T13:51:41;0.47;;;0.47;;
17943;SDS011;9097;47.028;15.444;2022-11-06T13:54:55;0.60;;;0.50;;
17943;SDS011;9097;47.028;15.444;2022-11-06T13:58:06;0.43;;;0.43;;
17943;SDS011;9097;47.028;15.444;2022-11-06T14:01:15;0.93;;;0.40;;
17943;SDS011;9097;47.028;15.444;2022-11-06T14:04:24;0.57;;;0.50;;
17943;SDS011;9097;47.028;15.444;2022-11-06T14:07:34;1.17;;;0.50;;
17943;SDS011;9097;47.028;15.444;2022-11-06T14:10:47;1.20;;;0.60;;
17943;SDS011;9097;47.028;15.444;2022-11-06T14:13:58;2.70;;;0.60;;
17943;SDS011;9097;47.028;15.444;2022-11-06T14:17:11;0.77;;;0.67;;
17943;SDS011;9097;47.028;15.444;2022-11-06T14:20:25;0.40;;;0.30;;
17943;SDS011;9097;47.028;15.444;2022-11-06T14:23:45;0.37;;;0.37;;
17943;SDS011;9097;47.028;15.444;2022-11-06T14:26:52;0.30;;;0.30;;
17943;SDS011;9097;47.028;15.444;2022-11-06T14:29:57;0.53;;;0.50;;
17943;SDS011;9097;47.028;15.444;2022-11-06T14:32:59;0.90;;;0.57;;
17943;SDS011;9097;47.028;15.444;2022-11-06T14:36:11;0.90;;;0.50;;
17943;SDS011;9097;47.028;15.444;2022-11-06T14:39:14;0.70;;;0.60;;
17943;SDS011;9097;47.028;15.444;2022-11-06T14:42:26;2.40;;;0.57;;
17943;SDS011;9097;47.028;15.444;2022-11-06T14:45:30;0.47;;;0.30;;
17943;SDS011;9097;47.028;15.444;2022-11-06T14:48:35;0.40;;;0.40;;
17943;SDS011;9097;47.028;15.444;2022-11-06T14:51:39;0.60;;;0.57;;
17943;SDS011;9097;47.028;15.444;2022-11-06T14:54:48;0.77;;;0.50;;
17943;SDS011;9097;47.028;15.444;2022-11-06T14:57:53;0.37;;;0.30;;
17943;SDS011;9097;47.028;15.444;2022-11-06T15:00:58;1.23;;;0.70;;
17943;SDS011;9097;47.028;15.444;2022-11-06T15:04:03;2.07;;;0.77;;
17943;SDS011;9097;47.028;15.444;2022-11-06T15:07:07;0.63;;;0.63;;
17943;SDS011;9097;47.028;15.444;2022-11-06T15:13:50;0.47;;;0.40;;
17943;SDS011;9097;47.028;15.444;2022-11-06T15:16:59;1.43;;;0.90;;
17943;SDS011;9097;47.028;15.444;2022-11-06T15:23:39;1.30;;;0.63;;
17943;SDS011;9097;47.028;15.444;2022-11-06T15:26:56;0.90;;;0.63;;
17943;SDS011;9097;47.028;15.444;2022-11-06T15:30:15;0.87;;;0.53;;
17943;SDS011;9097;47.028;15.444;2022-11-06T15:33:23;0.60;;;0.50;;
17943;SDS011;9097;47.028;15.444;2022-11-06T15:36:37;1.97;;;0.83;;
17943;SDS011;9097;47.028;15.444;2022-11-06T15:40:19;1.00;;;0.73;;
17943;SDS011;9097;47.028;15.444;2022-11-06T15:44:02;2.03;;;0.70;;
17943;SDS011;9097;47.028;15.444;2022-11-06T15:47:25;0.97;;;0.87;;
17943;SDS011;9097;47.028;15.444;2022-11-06T15:50:33;2.60;;;1.10;;
17943;SDS011;9097;47.028;15.444;2022-11-06T15:53:39;1.17;;;0.80;;
17943;SDS011;9097;47.028;15.444;2022-11-06T15:56:42;1.23;;;1.03;;
17943;SDS011;9097;47.028;15.444;2022-11-06T15:59:45;3.37;;;0.70;;
17943;SDS011;9097;47.028;15.444;2022-11-06T16:02:51;1.40;;;1.00;;
17943;SDS011;9097;47.028;15.444;2022-11-06T16:06:00;5.67;;;1.67;;
17943;SDS011;9097;47.028;15.444;2022-11-06T16:09:04;19.30;;;6.43;;
17943;SDS011;9097;47.028;15.444;2022-11-06T16:12:14;8.80;;;5.07;;
17943;SDS011;9097;47.028;15.444;2022-11-06T16:18:52;9.30;;;3.30;;
17943;SDS011;9097;47.028;15.444;2022-11-06T16:21:56;7.77;;;4.13;;
17943;SDS011;9097;47.028;15.444;2022-11-06T16:25:01;7.33;;;3.77;;
17943;SDS011;9097;47.028;15.444;2022-11-06T16:28:11;10.60;;;4.67;;
17943;SDS011;9097;47.028;15.444;2022-11-06T16:31:16;9.17;;;4.43;;
17943;SDS011;9097;47.028;15.444;2022-11-06T16:34:33;10.67;;;4.00;;
17943;SDS011;9097;47.028;15.444;2022-11-06T16:37:37;13.13;;;5.77;;
17943;SDS011;9097;47.028;15.444;2022-11-06T16:40:50;17.27;;;5.43;;
17943;SDS011;9097;47.028;15.444;2022-11-06T16:47:19;20.53;;;6.93;;
17943;SDS011;9097;47.028;15.444;2022-11-06T16:50:42;10.80;;;6.10;;
17943;SDS011;9097;47.028;15.444;2022-11-06T16:53:48;7.37;;;4.00;;
17943;SDS011;9097;47.028;15.444;2022-11-06T16:56:54;7.70;;;3.73;;
17943;SDS011;9097;47.028;15.444;2022-11-06T17:00:21;6.33;;;2.90;;
17943;SDS011;9097;47.028;15.444;2022-11-06T17:03:27;4.90;;;2.83;;
17943;SDS011;9097;47.028;15.444;2022-11-06T17:06:38;5.97;;;1.87;;
17943;SDS011;9097;47.028;15.444;2022-11-06T17:09:45;4.37;;;2.30;;
17943;SDS011;9097;47.028;15.444;2022-11-06T17:12:48;9.27;;;2.40;;
17943;SDS011;9097;47.028;15.444;2022-11-06T17:15:52;5.03;;;2.10;;
17943;SDS011;9097;47.028;15.444;2022-11-06T17:18:55;2.73;;;1.67;;
17943;SDS011;9097;47.028;15.444;2022-11-06T17:21:59;7.47;;;2.30;;
17943;SDS011;9097;47.028;15.444;2022-11-06T17:25:03;7.50;;;2.47;;
17943;SDS011;9097;47.028;15.444;2022-11-06T17:28:05;7.70;;;3.93;;
17943;SDS011;9097;47.028;15.444;2022-11-06T17:31:10;5.07;;;3.10;;
17943;SDS011;9097;47.028;15.444;2022-11-06T17:34:14;9.50;;;3.00;;
17943;SDS011;9097;47.028;15.444;2022-11-06T17:37:20;6.53;;;2.70;;
17943;SDS011;9097;47.028;15.444;2022-11-06T17:40:23;11.00;;;3.73;;
17943;SDS011;9097;47.028;15.444;2022-11-06T17:43:27;4.33;;;2.63;;
17943;SDS011;9097;47.028;15.444;2022-11-06T17:46:31;6.67;;;3.53;;
17943;SDS011;9097;47.028;15.444;2022-11-06T17:49:34;6.57;;;3.20;;
17943;SDS011;9097;47.028;15.444;2022-11-06T17:52:39;6.03;;;3.37;;
17943;SDS011;9097;47.028;15.444;2022-11-06T17:55:42;9.80;;;3.67;;
17943;SDS011;9097;47.028;15.444;2022-11-06T17:58:45;5.40;;;2.90;;
17943;SDS011;9097;47.028;15.444;2022-11-06T18:01:48;5.90;;;3.13;;
17943;SDS011;9097;47.028;15.444;2022-11-06T18:04:54;5.27;;;3.07;;
17943;SDS011;9097;47.028;15.444;2022-11-06T18:07:59;7.17;;;4.07;;
17943;SDS011;9097;47.028;15.444;2022-11-06T18:11:02;3.97;;;2.73;;
17943;SDS011;9097;47.028;15.444;2022-11-06T18:14:05;5.13;;;2.93;;
17943;SDS011;9097;47.028;15.444;2022-11-06T18:17:08;6.60;;;3.70;;
17943;SDS011;9097;47.028;15.444;2022-11-06T18:20:11;8.17;;;3.50;;
17943;SDS011;9097;47.028;15.444;2022-11-06T18:23:16;6.63;;;2.93;;
17943;SDS011;9097;47.028;15.444;2022-11-06T18:26:19;13.37;;;3.37;;
17943;SDS011;9097;47.028;15.444;2022-11-06T18:29:23;9.40;;;4.07;;
17943;SDS011;9097;47.028;15.444;2022-11-06T18:32:26;8.47;;;3.70;;
17943;SDS011;9097;47.028;15.444;2022-11-06T18:35:29;15.83;;;4.77;;
17943;SDS011;9097;47.028;15.444;2022-11-06T18:38:34;7.53;;;4.10;;
17943;SDS011;9097;47.028;15.444;2022-11-06T18:41:38;6.33;;;3.87;;
17943;SDS011;9097;47.028;15.444;2022-11-06T18:44:41;7.50;;;4.03;;
17943;SDS011;9097;47.028;15.444;2022-11-06T18:47:45;7.50;;;3.57;;
17943;SDS011;9097;47.028;15.444;2022-11-06T18:50:48;10.20;;;4.60;;
17943;SDS011;9097;47.028;15.444;2022-11-06T18:53:56;7.83;;;4.10;;
17943;SDS011;9097;47.028;15.444;2022-11-06T18:56:59;8.37;;;3.83;;
17943;SDS011;9097;47.028;15.444;2022-11-06T19:00:02;7.23;;;3.37;;
17943;SDS011;9097;47.028;15.444;2022-11-06T19:03:06;7.60;;;3.37;;
17943;SDS011;9097;47.028;15.444;2022-11-06T19:06:09;8.80;;;2.60;;
17943;SDS011;9097;47.028;15.444;2022-11-06T19:09:14;6.67;;;2.93;;
17943;SDS011;9097;47.028;15.444;2022-11-06T19:12:17;7.80;;;3.50;;
17943;SDS011;9097;47.028;15.444;2022-11-06T19:15:21;5.57;;;3.40;;